Flight Track Log - Related Links

Times and Time Zones

All times are in EDT time to prevent confusion due to time zone crossing. See the N54628 flight status page for this flight to view local times or setup timezone preferences in your user account.

Time Position Orientation Groundspeed Altitude Reporting Facility
EDT Latitude Longitude Course Direction KTS MPH feet Rate Location/Type
Mon 10:40:52 AM 40.0769 -83.0794 264° West 72 83 1,100  Level Indianapolis Center
Mon 10:41:46 AM 40.0753 -83.1011 264° West 69 79 1,700 643 Climbing Indianapolis Center
Mon 10:42:16 AM 40.0756 -83.1144 272° West 73 84 2,000 590 Climbing Indianapolis Center
Mon 10:42:47 AM 40.0778 -83.1258 284° West 76 87 2,300 581 Climbing Indianapolis Center
Mon 10:43:18 AM 40.0894 -83.1222 13° North 80 92 2,600 537 Climbing Indianapolis Center
Mon 10:43:54 AM 40.1017 -83.1150 24° Northeast 85 98 2,900 387 Climbing Indianapolis Center
Mon 10:44:20 AM 40.1097 -83.1097 27° Northeast 80 92 3,000 100 Climbing Indianapolis Center
Mon 10:44:54 AM 40.1269 -83.1097 360° North 96 110 3,000  Level Indianapolis Center
Mon 10:45:22 AM 40.1364 -83.1069 13° North 88 101 3,000  Level Indianapolis Center
Mon 10:45:55 AM 40.1522 -83.1100 352° North 92 106 3,000  Level Indianapolis Center
Mon 10:46:24 AM 40.1631 -83.1086 North 92 106 3,000  Level Indianapolis Center
Mon 10:46:50 AM 40.1769 -83.1131 346° North 95 109 3,000  Level Indianapolis Center
Mon 10:47:26 AM 40.1894 -83.1144 355° North 94 108 3,000  Level Indianapolis Center
Mon 10:47:56 AM 40.2058 -83.1217 341° North 94 108 3,000 -97 Level Indianapolis Center
Mon 10:48:28 AM 40.2192 -83.1236 354° North 94 108 2,900  Descending Indianapolis Center
Mon 10:49:03 AM 40.2325 -83.1278 347° North 95 109 3,000  Climbing Indianapolis Center
Mon 10:49:30 AM 40.2450 -83.1292 355° North 94 108 2,900 -218 Descending Indianapolis Center
Mon 10:49:58 AM 40.2461 -83.1456 275° West 90 104 2,800 -387 Descending Indianapolis Center
Mon 10:50:32 AM 40.2431 -83.1622 256° West 94 108 2,500 -600 Descending Indianapolis Center
Mon 10:50:58 AM 40.2397 -83.1778 254° West 92 106 2,200 -290 Descending Indianapolis Center
Mon 10:51:34 AM 40.2381 -83.1958 263° West 94 108 2,200  Level Indianapolis Center
Mon 10:51:59 AM 40.2353 -83.2100 256° West 89 102 2,200  Level Indianapolis Center
Mon 10:52:36 AM 40.2339 -83.2261 264° West 89 102 2,200 -109 Level Indianapolis Center
Mon 10:52:54 AM 40.2333 -83.2369 266° West 83 96 2,100 -97 Descending Indianapolis Center
Mon 10:53:38 AM 40.2322 -83.2572 266° West 86 99 2,100 100 Level Indianapolis Center
Mon 10:53:54 AM 40.2314 -83.2667 263° West 82 94 2,200 -194 Climbing Indianapolis Center
Mon 10:54:40 AM 40.2306 -83.2864 267° West 83 96 1,900 -537 Descending Indianapolis Center
Mon 10:55:01 AM 40.2289 -83.3019 262° West 81 93 1,600 -484 Descending Indianapolis Center
Mon 10:55:42 AM 40.2283 -83.3142 267° West 80 92 1,400 -295 Descending Indianapolis Center
Mon 10:56:02 AM 40.2250 -83.3261 250° West 68 78 1,300 -194 Descending Indianapolis Center
Mon 10:56:44 AM 40.2256 -83.3392 273° West 72 83 1,200 47 Descending Indianapolis Center
Mon 10:58:10 AM 40.2236 -83.3689 265° West 76 87 1,400 313 Climbing Indianapolis Center
Mon 10:58:58 AM 40.2361 -83.3767 335° Northwest 86 99 1,900 629 Climbing Indianapolis Center
Mon 11:00:14 AM 40.2611 -83.3714 North 78 90 2,700 516 Climbing Indianapolis Center
Mon 11:01:06 AM 40.2600 -83.3331 92° East 101 116 3,000 194 Climbing Indianapolis Center
Mon 11:02:18 AM 40.2478 -83.2900 110° East 103 119 3,100  Climbing Indianapolis Center
Mon 11:04:14 AM 40.2181 -83.2161 118° Southeast 116 133 3,000 -34 Descending Indianapolis Center
Mon 11:05:15 AM 40.2036 -83.1817 119° Southeast 114 131 3,000  Level Indianapolis Center
Mon 11:06:16 AM 40.1919 -83.1419 111° Southeast 120 138 3,000  Level Indianapolis Center
Mon 11:07:23 AM 40.1736 -83.1044 123° Southeast 118 136 3,000 90 Level Indianapolis Center
Mon 11:08:29 AM 40.1586 -83.0672 118° Southeast 114 131 3,200  Climbing Indianapolis Center
Mon 11:09:19 AM 40.1578 -83.0289 92° East 106 122 3,000 -108 Descending Indianapolis Center
Mon 11:10:20 AM 40.1564 -82.9878 93° East 114 131 3,000  Level Indianapolis Center
Mon 11:11:21 AM 40.1528 -82.9492 97° East 111 128 3,000  Level Indianapolis Center
Mon 11:12:22 AM 40.1514 -82.9081 93° East 114 131 3,000  Level Indianapolis Center
Mon 11:13:28 AM 40.1500 -82.8642 92° East 114 131 3,000  Level Indianapolis Center
Mon 11:14:23 AM 40.1256 -82.8533 161° South 105 121 3,000 83 Level Indianapolis Center
Mon 11:14:40 AM 40.1186 -82.8511 166° South 115 132 3,100 -98 Climbing Indianapolis Center
Mon 11:15:24 AM 40.0967 -82.8500 178° South 107 123 2,900  Descending Indianapolis Center
Mon 11:15:41 AM 40.0856 -82.8489 176° South 108 124 3,100 -197 Climbing Indianapolis Center
Mon 11:16:25 AM 40.0825 -82.8731 261° West 82 94 2,700 -387 Descending Indianapolis Center
Mon 11:16:43 AM 40.0836 -82.8792 283° West 95 109 2,700 -197 Level Indianapolis Center
Mon 11:17:26 AM 40.0806 -82.9028 260° West 80 92 2,500 -97 Descending Indianapolis Center
Mon 11:17:45 AM 40.0814 -82.9094 279° West 88 101 2,600  Climbing Indianapolis Center
Mon 11:18:20 AM 40.0806 -82.9328 267° West 87 100 2,500  Descending Indianapolis Center
Mon 11:18:46 AM 40.0819 -82.9406 283° West 86 99 2,600 -98 Climbing Indianapolis Center
Mon 11:19:21 AM 40.0806 -82.9653 266° West 91 105 2,400 -290 Descending Indianapolis Center
Mon 11:19:48 AM 40.0811 -82.9733 275° West 87 100 2,300 -545 Descending Indianapolis Center
Mon 11:20:16 AM 40.0786 -82.9925 260° West 90 104 1,900 -484 Descending Indianapolis Center
Mon 11:20:50 AM 40.0789 -83.0103 271° West 87 100 1,800 -400 Descending Indianapolis Center
Mon 11:21:16 AM 40.0786 -83.0225 268° West 76 87 1,500 -393 Descending Indianapolis Center
Mon 11:21:51 AM 40.0792 -83.0369 273° West 80 92 1,400 -329 Descending Indianapolis Center
Mon 11:22:29 AM 40.0786 -83.0525 267° West 64 74 1,100 -194 Descending Indianapolis Center
Mon 11:22:53 AM 40.0786 -83.0617 270° West 75 86 1,200 250 Climbing Indianapolis Center

Login

Don't have an account? Register now (free) for customized features, flight alerts, and more!